createdAt,value
2018-08-17T00:02:21.452Z,98.80
2018-08-17T00:04:49.931Z,98.90
2018-08-17T00:07:18.397Z,99.20
2018-08-17T00:09:46.833Z,98.90
2018-08-17T00:12:15.299Z,98.90
2018-08-17T00:14:43.807Z,99.10
2018-08-17T00:17:12.263Z,99.30
2018-08-17T00:19:40.789Z,99.60
2018-08-17T00:22:09.228Z,99.70
2018-08-17T00:24:37.757Z,99.80
2018-08-17T00:27:06.187Z,99.90
2018-08-17T00:29:34.601Z,99.90
2018-08-17T00:32:03.155Z,99.90
2018-08-17T00:34:31.583Z,99.90
2018-08-17T00:37:00.063Z,99.90
2018-08-17T00:39:28.505Z,99.90
2018-08-17T00:41:56.963Z,99.90
2018-08-17T00:44:25.399Z,99.90
2018-08-17T00:46:54.008Z,99.90
2018-08-17T00:49:22.472Z,99.90
2018-08-17T00:51:50.903Z,99.90
2018-08-17T00:54:19.327Z,99.90
2018-08-17T00:56:47.820Z,99.90
2018-08-17T00:59:16.276Z,99.90
2018-08-17T01:01:44.711Z,99.90
2018-08-17T01:04:13.163Z,99.90
2018-08-17T01:06:41.591Z,99.90
2018-08-17T01:09:10.587Z,99.90
2018-08-17T01:11:39.045Z,99.90
2018-08-17T01:14:07.467Z,99.90
2018-08-17T01:16:35.944Z,99.90
2018-08-17T01:19:04.491Z,99.90
2018-08-17T01:21:32.975Z,99.90
2018-08-17T01:24:01.894Z,99.90
2018-08-17T01:26:30.325Z,99.90
2018-08-17T01:28:58.805Z,99.90
2018-08-17T01:31:27.279Z,99.90
2018-08-17T01:33:55.718Z,99.90
2018-08-17T01:36:24.360Z,99.90
2018-08-17T01:38:52.798Z,99.90
2018-08-17T01:41:21.235Z,99.90
2018-08-17T01:43:49.677Z,99.90
2018-08-17T01:46:18.127Z,99.90
2018-08-17T01:48:46.541Z,99.90
2018-08-17T01:51:15.918Z,99.90
2018-08-17T01:53:44.339Z,99.90
2018-08-17T01:56:12.778Z,99.90
2018-08-17T01:58:41.200Z,99.90
2018-08-17T02:01:09.729Z,99.90
2018-08-17T02:03:38.154Z,99.90
2018-08-17T02:06:06.622Z,99.90
2018-08-17T02:08:35.809Z,99.90
2018-08-17T02:11:04.295Z,99.90
2018-08-17T02:13:32.713Z,99.90
2018-08-17T02:16:01.148Z,99.90
2018-08-17T02:18:30.516Z,99.90
2018-08-17T02:20:59.004Z,99.90
2018-08-17T02:23:27.481Z,99.90
2018-08-17T02:25:55.951Z,99.90
2018-08-17T02:28:24.389Z,99.90
2018-08-17T02:30:52.826Z,99.90
2018-08-17T02:33:21.404Z,99.90
2018-08-17T02:35:49.845Z,99.90
2018-08-17T02:38:18.361Z,99.90
2018-08-17T02:40:46.837Z,99.90
2018-08-17T02:43:15.292Z,99.90
2018-08-17T02:45:43.727Z,99.90
2018-08-17T02:48:12.255Z,99.90
2018-08-17T02:50:40.694Z,99.90
2018-08-17T02:53:09.457Z,99.90
2018-08-17T02:55:37.909Z,99.90
2018-08-17T02:58:06.395Z,99.90
2018-08-17T03:00:34.859Z,99.90
2018-08-17T03:03:03.305Z,99.90
2018-08-17T03:05:31.729Z,99.90
2018-08-17T03:08:00.345Z,99.90
2018-08-17T03:10:28.975Z,99.90
2018-08-17T03:12:57.510Z,99.90
2018-08-17T03:15:25.959Z,99.90
2018-08-17T03:17:54.371Z,99.90
2018-08-17T03:20:22.797Z,99.90
2018-08-17T03:22:51.350Z,99.90
2018-08-17T03:25:20.301Z,99.90
2018-08-17T03:27:48.810Z,99.90
2018-08-17T03:30:17.232Z,99.90
2018-08-17T03:32:45.670Z,99.90
2018-08-17T03:35:14.122Z,99.90
2018-08-17T03:37:43.056Z,99.90
2018-08-17T03:40:11.555Z,99.90
2018-08-17T03:42:39.988Z,99.90
2018-08-17T03:45:08.515Z,99.90
2018-08-17T03:47:36.920Z,99.90
2018-08-17T03:50:06.170Z,99.90
2018-08-17T03:52:34.610Z,99.90
2018-08-17T03:55:03.124Z,99.90
2018-08-17T03:57:31.581Z,99.90
2018-08-17T04:00:00.105Z,99.90
2018-08-17T04:02:28.595Z,99.90
2018-08-17T04:04:57.336Z,99.90
2018-08-17T04:07:25.879Z,99.90
2018-08-17T04:09:54.367Z,99.90
2018-08-17T04:12:22.871Z,99.90
2018-08-17T04:14:51.297Z,99.90
2018-08-17T04:17:19.761Z,99.90
2018-08-17T04:19:48.217Z,99.90
2018-08-17T04:22:16.675Z,99.90
2018-08-17T04:24:45.099Z,99.90
2018-08-17T04:27:13.557Z,99.90
2018-08-17T04:29:42.003Z,99.90
2018-08-17T04:32:10.467Z,99.90
2018-08-17T04:34:38.896Z,99.90
2018-08-17T04:37:07.385Z,99.90
2018-08-17T04:39:35.829Z,99.90
2018-08-17T04:42:04.426Z,99.90
2018-08-17T04:44:32.869Z,99.90
2018-08-17T04:47:01.316Z,99.90
2018-08-17T04:49:29.823Z,99.90
2018-08-17T04:51:58.238Z,99.90
2018-08-17T04:54:26.652Z,99.90
2018-08-17T04:56:55.108Z,99.90
2018-08-17T04:59:23.552Z,99.90
2018-08-17T05:01:52.027Z,99.90
2018-08-17T05:04:20.629Z,99.90
2018-08-17T05:06:49.079Z,99.90
2018-08-17T05:09:17.633Z,99.90
2018-08-17T05:11:46.065Z,99.90
2018-08-17T05:14:14.518Z,99.90
2018-08-17T05:16:43.152Z,99.90
2018-08-17T05:19:11.621Z,99.90
2018-08-17T05:21:40.171Z,99.90
2018-08-17T05:24:08.549Z,99.90
2018-08-17T05:26:36.981Z,99.90
2018-08-17T05:29:05.632Z,99.90
2018-08-17T05:31:34.106Z,99.90
2018-08-17T05:34:02.557Z,99.90
2018-08-17T05:36:31.010Z,99.90
2018-08-17T05:38:59.533Z,99.90
2018-08-17T05:41:27.971Z,99.90
2018-08-17T05:43:56.533Z,99.90
2018-08-17T05:46:25.013Z,99.90
2018-08-17T05:48:53.524Z,99.90
2018-08-17T05:51:22.012Z,99.90
2018-08-17T05:53:50.965Z,99.90
2018-08-17T05:56:19.451Z,99.90
2018-08-17T05:58:48.643Z,99.90
2018-08-17T06:01:17.523Z,99.90
2018-08-17T06:03:46.037Z,99.90
2018-08-17T06:06:14.533Z,99.90
2018-08-17T06:08:43.003Z,99.90
2018-08-17T06:11:11.865Z,99.90
2018-08-17T06:13:40.211Z,99.90
2018-08-17T06:16:08.741Z,99.90
2018-08-17T06:18:37.215Z,99.90
2018-08-17T06:21:05.680Z,99.90
2018-08-17T06:23:34.132Z,99.90
2018-08-17T06:26:02.694Z,99.90
2018-08-17T06:28:31.147Z,99.90
2018-08-17T06:30:59.636Z,99.90
2018-08-17T06:33:28.096Z,99.90
2018-08-17T06:35:56.632Z,99.90
2018-08-17T06:38:25.028Z,99.90
2018-08-17T06:40:53.703Z,99.90
2018-08-17T06:43:22.231Z,99.90
2018-08-17T06:45:50.762Z,99.90
2018-08-17T06:48:19.297Z,99.90
2018-08-17T06:50:47.964Z,99.90
2018-08-17T06:53:16.329Z,99.90
2018-08-17T06:55:44.805Z,99.90
2018-08-17T06:58:13.264Z,99.90
2018-08-17T07:00:42.307Z,99.90
2018-08-17T07:03:10.794Z,99.90
2018-08-17T07:05:39.227Z,99.90
2018-08-17T07:08:07.698Z,99.90
2018-08-17T07:10:36.129Z,99.90
2018-08-17T07:13:04.604Z,99.90
2018-08-17T07:15:33.056Z,99.90
2018-08-17T07:18:01.486Z,99.90
2018-08-17T07:20:29.952Z,99.90
2018-08-17T07:22:58.425Z,99.90
2018-08-17T07:25:26.838Z,99.90
2018-08-17T07:27:55.396Z,99.90
2018-08-17T07:30:23.804Z,99.90
2018-08-17T07:32:52.222Z,99.90
2018-08-17T07:35:20.648Z,99.90
2018-08-17T07:37:49.161Z,99.90
2018-08-17T07:40:17.618Z,99.90
2018-08-17T07:42:46.086Z,99.90
2018-08-17T07:45:14.634Z,99.90
2018-08-17T07:47:43.186Z,99.90
2018-08-17T07:50:16.094Z,99.90
2018-08-17T07:52:44.818Z,99.90
2018-08-17T07:55:13.392Z,99.90
2018-08-17T07:57:41.859Z,99.80
2018-08-17T08:00:11.194Z,99.60
2018-08-17T08:02:39.685Z,99.40
2018-08-17T08:05:09.487Z,98.80
2018-08-17T08:07:38.110Z,99.40
2018-08-17T08:10:07.319Z,98.30
2018-08-17T08:12:35.809Z,98.10
2018-08-17T08:15:04.561Z,98.10
2018-08-17T08:17:33.034Z,98.50
2018-08-17T08:20:12.945Z,98.30
2018-08-17T08:22:41.428Z,98.00
2018-08-17T08:25:09.920Z,97.00
2018-08-17T08:27:38.434Z,96.40
2018-08-17T08:30:07.829Z,96.10
2018-08-17T08:32:36.403Z,96.50
2018-08-17T08:35:05.530Z,94.80
2018-08-17T08:37:33.971Z,95.00
2018-08-17T08:40:02.433Z,93.40
2018-08-17T08:42:30.902Z,93.10
2018-08-17T08:44:59.356Z,93.20
2018-08-17T08:47:27.837Z,93.80
2018-08-17T08:49:56.618Z,94.40
2018-08-17T08:52:25.052Z,93.50
2018-08-17T08:54:53.492Z,92.40
2018-08-17T08:57:22.020Z,92.30
2018-08-17T08:59:50.500Z,92.20
2018-08-17T09:02:18.959Z,91.80
2018-08-17T09:04:47.431Z,91.60
2018-08-17T09:07:15.862Z,92.20
2018-08-17T09:09:44.316Z,92.60
2018-08-17T09:12:12.761Z,91.70
2018-08-17T09:14:41.288Z,91.40
2018-08-17T09:17:09.731Z,91.90
2018-08-17T09:19:38.270Z,91.60
2018-08-17T09:22:06.997Z,91.80
2018-08-17T09:24:35.465Z,91.70
2018-08-17T09:27:03.922Z,91.70
2018-08-17T09:29:32.401Z,91.30
2018-08-17T09:32:00.819Z,91.40
2018-08-17T09:34:29.285Z,92.90
2018-08-17T09:36:57.970Z,92.60
2018-08-17T09:39:26.885Z,90.90
2018-08-17T09:41:55.416Z,91.40
2018-08-17T09:44:24.163Z,91.20
2018-08-17T09:46:52.616Z,90.30
2018-08-17T09:49:21.193Z,91.10
2018-08-17T09:51:49.625Z,90.10
2018-08-17T09:54:18.072Z,90.00
2018-08-17T09:56:46.557Z,91.90
2018-08-17T09:59:15.046Z,90.50
2018-08-17T10:01:48.760Z,90.80
2018-08-17T10:04:22.598Z,91.10
2018-08-17T10:06:56.398Z,89.80
2018-08-17T10:09:30.966Z,89.30
2018-08-17T10:11:59.430Z,89.10
2018-08-17T10:14:27.892Z,90.00
2018-08-17T10:16:56.352Z,87.40
2018-08-17T10:19:24.820Z,85.50
2018-08-17T10:21:55.362Z,88.90
2018-08-17T10:24:24.260Z,88.40
2018-08-17T10:26:54.348Z,85.80
2018-08-17T10:29:23.196Z,86.90
2018-08-17T10:31:51.893Z,86.30
2018-08-17T10:34:20.660Z,85.80
2018-08-17T10:36:49.139Z,85.30
2018-08-17T10:39:17.610Z,86.00
2018-08-17T10:41:46.144Z,85.60
2018-08-17T10:44:14.575Z,84.90
2018-08-17T10:46:43.545Z,83.20
2018-08-17T10:49:12.103Z,84.60
2018-08-17T10:51:40.520Z,80.00
2018-08-17T10:54:09.007Z,78.40
2018-08-17T10:56:37.453Z,81.00
2018-08-17T10:59:05.988Z,79.20
2018-08-17T11:01:34.436Z,77.80
2018-08-17T11:04:02.884Z,77.00
2018-08-17T11:06:31.403Z,77.30
2018-08-17T11:08:59.863Z,78.80
2018-08-17T11:11:28.291Z,76.40
2018-08-17T11:13:56.726Z,77.50
2018-08-17T11:16:25.251Z,76.80
2018-08-17T11:18:53.779Z,78.50
2018-08-17T11:21:22.218Z,75.20
2018-08-17T11:23:50.651Z,77.20
2018-08-17T11:26:19.135Z,77.00
2018-08-17T11:28:47.555Z,74.30
2018-08-17T11:31:16.027Z,75.20
2018-08-17T11:33:44.492Z,75.00
2018-08-17T11:36:12.956Z,73.60
2018-08-17T11:38:41.397Z,70.80
2018-08-17T11:41:10.324Z,70.50
2018-08-17T11:43:38.769Z,72.80
2018-08-17T11:46:07.213Z,72.90
2018-08-17T11:48:36.792Z,71.70
2018-08-17T11:51:05.272Z,73.00
2018-08-17T11:53:33.733Z,76.20
2018-08-17T11:56:02.307Z,71.20
2018-08-17T11:58:30.750Z,71.90
2018-08-17T12:00:59.267Z,73.30
2018-08-17T12:03:27.746Z,72.40
2018-08-17T12:05:56.231Z,72.90
2018-08-17T12:08:24.745Z,71.60
2018-08-17T12:11:03.163Z,73.20
2018-08-17T12:13:31.701Z,71.70
2018-08-17T12:16:00.133Z,71.50
2018-08-17T12:18:28.602Z,72.20
2018-08-17T12:20:57.059Z,72.40
2018-08-17T12:23:25.504Z,71.70
2018-08-17T12:25:56.360Z,72.30
2018-08-17T12:28:25.960Z,71.70
2018-08-17T12:30:54.419Z,72.90
2018-08-17T12:33:22.930Z,73.80
2018-08-17T12:35:51.518Z,72.70
2018-08-17T12:38:20.000Z,71.60
2018-08-17T12:40:51.659Z,73.40
2018-08-17T12:43:23.281Z,72.60
2018-08-17T12:45:51.799Z,74.30
2018-08-17T12:48:20.247Z,72.70
2018-08-17T12:50:48.722Z,73.00
2018-08-17T12:53:17.182Z,71.30
2018-08-17T12:55:45.660Z,72.50
2018-08-17T12:58:14.781Z,72.40
2018-08-17T13:00:43.530Z,71.40
2018-08-17T13:03:11.967Z,73.30
2018-08-17T13:05:40.421Z,72.20
2018-08-17T13:08:09.194Z,72.30
2018-08-17T13:10:38.026Z,72.40
2018-08-17T13:13:10.452Z,74.10
2018-08-17T13:15:43.415Z,72.50
2018-08-17T13:18:17.159Z,70.50
2018-08-17T13:20:45.650Z,72.90
2018-08-17T13:23:14.089Z,71.30
2018-08-17T13:25:42.626Z,72.00
2018-08-17T13:28:11.626Z,72.40
2018-08-17T13:30:40.207Z,71.30
2018-08-17T13:33:08.786Z,73.10
2018-08-17T13:35:37.229Z,74.60
2018-08-17T13:38:05.977Z,72.90
2018-08-17T13:40:34.419Z,72.90
2018-08-17T13:43:02.987Z,69.90
2018-08-17T13:45:31.442Z,68.60
2018-08-17T13:48:00.026Z,70.30
2018-08-17T13:50:28.641Z,69.90
2018-08-17T13:52:57.205Z,71.60
2018-08-17T13:55:25.692Z,67.50
2018-08-17T13:57:54.166Z,68.60
2018-08-17T14:00:22.676Z,67.60
2018-08-17T14:02:51.118Z,67.70
2018-08-17T14:05:19.556Z,66.50
2018-08-17T14:07:48.031Z,66.10
2018-08-17T14:10:16.502Z,70.50
2018-08-17T14:12:44.970Z,68.80
2018-08-17T14:15:13.440Z,66.90
2018-08-17T14:17:41.895Z,67.10
2018-08-17T14:20:14.301Z,68.30
2018-08-17T14:22:43.269Z,66.60
2018-08-17T14:25:12.209Z,66.40
2018-08-17T14:27:40.830Z,67.00
2018-08-17T14:30:15.334Z,66.20
2018-08-17T14:32:44.222Z,66.10
2018-08-17T14:35:13.033Z,67.30
2018-08-17T14:37:41.573Z,64.70
2018-08-17T14:40:10.696Z,67.70
2018-08-17T14:42:39.698Z,66.30
2018-08-17T14:45:09.181Z,66.30
2018-08-17T14:47:38.135Z,65.90
2018-08-17T14:50:10.965Z,64.20
2018-08-17T14:52:39.489Z,65.70
2018-08-17T14:55:08.226Z,64.00
2018-08-17T14:57:36.659Z,63.30
2018-08-17T15:00:08.248Z,61.30
2018-08-17T15:02:36.727Z,62.90
2018-08-17T15:05:06.388Z,62.40
2018-08-17T15:07:34.906Z,61.20
2018-08-17T15:10:03.374Z,63.60
2018-08-17T15:12:31.850Z,64.00
2018-08-17T15:15:00.279Z,65.30
2018-08-17T15:17:28.757Z,62.80
2018-08-17T15:19:57.224Z,62.00
2018-08-17T15:22:25.686Z,61.40
2018-08-17T15:24:54.223Z,63.10
2018-08-17T15:27:22.693Z,63.70
2018-08-17T15:29:51.171Z,62.10
2018-08-17T15:32:19.669Z,63.00
2018-08-17T15:34:48.185Z,62.90
2018-08-17T15:37:16.721Z,64.40
2018-08-17T15:39:45.229Z,63.10
2018-08-17T15:42:13.722Z,66.30
2018-08-17T15:44:42.163Z,62.90
2018-08-17T15:47:10.634Z,62.50
2018-08-17T15:49:39.101Z,63.40
2018-08-17T15:52:07.889Z,63.50
2018-08-17T15:54:36.368Z,65.20
2018-08-17T15:57:04.894Z,61.10
2018-08-17T15:59:33.414Z,61.00
2018-08-17T16:02:01.889Z,60.70
2018-08-17T16:04:30.398Z,62.90
2018-08-17T16:06:58.961Z,64.00
2018-08-17T16:09:27.441Z,63.30
2018-08-17T16:11:56.005Z,63.40
2018-08-17T16:14:24.596Z,64.10
2018-08-17T16:16:53.052Z,65.20
2018-08-17T16:19:22.230Z,64.40
2018-08-17T16:21:50.938Z,61.50
2018-08-17T16:24:19.569Z,61.70
2018-08-17T16:26:48.604Z,64.40
2018-08-17T16:29:17.397Z,67.00
2018-08-17T16:31:45.901Z,67.10
2018-08-17T16:34:14.369Z,65.50
2018-08-17T16:36:43.239Z,63.40
2018-08-17T16:39:16.545Z,64.20
2018-08-17T16:41:45.108Z,64.30
2018-08-17T16:44:14.350Z,66.20
2018-08-17T16:46:43.622Z,67.10
2018-08-17T16:49:12.205Z,64.70
2018-08-17T16:51:40.738Z,62.80
2018-08-17T16:54:09.514Z,66.20
2018-08-17T16:56:38.045Z,65.90
2018-08-17T16:59:06.910Z,66.00
2018-08-17T17:01:35.370Z,63.10
2018-08-17T17:04:04.025Z,62.50
2018-08-17T17:06:32.878Z,62.90
2018-08-17T17:09:04.677Z,63.20
2018-08-17T17:11:33.961Z,62.30
2018-08-17T17:14:03.805Z,63.70
2018-08-17T17:16:39.202Z,63.00
2018-08-17T17:19:14.242Z,64.70
2018-08-17T17:21:44.488Z,65.40
2018-08-17T17:24:13.212Z,66.00
2018-08-17T17:26:42.057Z,65.70
2018-08-17T17:29:11.752Z,65.80
2018-08-17T17:31:40.890Z,66.50
2018-08-17T17:34:10.111Z,67.30
2018-08-17T17:36:39.234Z,67.60
2018-08-17T17:39:10.576Z,66.90
2018-08-17T17:41:39.104Z,67.60
2018-08-17T17:44:07.842Z,68.50
2018-08-17T17:46:37.714Z,68.40
2018-08-17T17:49:06.360Z,68.90
2018-08-17T17:51:34.849Z,67.80
2018-08-17T17:54:03.582Z,68.30
2018-08-17T17:56:32.051Z,69.00
2018-08-17T17:59:04.801Z,70.00
2018-08-17T18:01:33.407Z,70.90
2018-08-17T18:04:01.921Z,71.00
2018-08-17T18:06:30.493Z,71.70
2018-08-17T18:08:59.904Z,72.20
2018-08-17T18:11:28.786Z,72.30
2018-08-17T18:13:57.239Z,71.90
2018-08-17T18:16:25.707Z,74.10
2018-08-17T18:18:54.540Z,73.90
2018-08-17T18:21:28.602Z,74.80
2018-08-17T18:24:12.475Z,74.90
2018-08-17T18:26:55.663Z,74.90
2018-08-17T18:29:24.200Z,74.90
2018-08-17T18:31:52.686Z,75.10
2018-08-17T18:34:21.205Z,74.70
2018-08-17T18:36:50.047Z,75.50
2018-08-17T18:39:18.622Z,76.60
2018-08-17T18:41:47.898Z,76.70
2018-08-17T18:44:16.374Z,76.10
2018-08-17T18:46:44.944Z,76.70
2018-08-17T18:49:13.304Z,76.70
2018-08-17T18:51:41.794Z,76.70
2018-08-17T18:54:10.694Z,77.10
2018-08-17T18:56:39.193Z,76.80
2018-08-17T18:59:07.772Z,77.60
2018-08-17T19:01:36.221Z,78.10
2018-08-17T19:04:04.752Z,78.60
2018-08-17T19:06:33.206Z,77.70
2018-08-17T19:09:01.674Z,78.20
2018-08-17T19:11:30.181Z,79.50
2018-08-17T19:13:58.660Z,79.90
2018-08-17T19:16:27.150Z,79.90
2018-08-17T19:18:55.639Z,80.50
2018-08-17T19:21:24.276Z,81.40
2018-08-17T19:23:52.956Z,81.40
2018-08-17T19:26:21.373Z,81.70
2018-08-17T19:28:53.038Z,82.20
2018-08-17T19:31:21.775Z,82.30
2018-08-17T19:33:50.950Z,82.20
2018-08-17T19:36:19.428Z,82.40
2018-08-17T19:38:47.925Z,82.60
2018-08-17T19:41:16.494Z,82.90
2018-08-17T19:43:44.976Z,83.10
2018-08-17T19:46:13.532Z,83.80
2018-08-17T19:48:42.238Z,84.90
2018-08-17T19:51:15.960Z,86.60
2018-08-17T19:53:44.443Z,87.60
2018-08-17T19:56:13.165Z,87.40
2018-08-17T19:58:41.951Z,88.00
2018-08-17T20:01:10.742Z,88.60
2018-08-17T20:03:39.236Z,88.50
2018-08-17T20:06:07.737Z,90.10
2018-08-17T20:08:36.215Z,90.00
2018-08-17T20:11:06.219Z,90.10
2018-08-17T20:13:34.970Z,89.70
2018-08-17T20:16:09.892Z,89.30
2018-08-17T20:18:38.550Z,89.20
2018-08-17T20:21:07.077Z,88.50
2018-08-17T20:23:36.239Z,90.00
2018-08-17T20:26:04.892Z,90.50
2018-08-17T20:28:33.484Z,90.20
2018-08-17T20:31:02.126Z,90.40
2018-08-17T20:33:30.848Z,90.40
2018-08-17T20:35:59.544Z,90.40
2018-08-17T20:38:28.251Z,90.30
2018-08-17T20:40:59.639Z,90.20
2018-08-17T20:43:28.702Z,90.20
2018-08-17T20:45:57.328Z,90.80
2018-08-17T20:48:25.855Z,91.00
2018-08-17T20:50:54.349Z,91.00
2018-08-17T20:53:22.839Z,90.60
2018-08-17T20:55:51.332Z,90.30
2018-08-17T20:58:20.766Z,91.10
2018-08-17T21:00:49.372Z,91.00
2018-08-17T21:03:18.060Z,90.90
2018-08-17T21:05:46.525Z,90.90
2018-08-17T21:08:14.959Z,90.70
2018-08-17T21:10:43.421Z,90.50
2018-08-17T21:13:11.902Z,90.30
2018-08-17T21:15:40.390Z,90.50
2018-08-17T21:18:08.884Z,90.30
2018-08-17T21:20:37.346Z,90.50
2018-08-17T21:23:05.808Z,90.50
2018-08-17T21:25:34.307Z,90.60
2018-08-17T21:28:04.140Z,91.10
2018-08-17T21:30:32.579Z,91.60
2018-08-17T21:33:01.172Z,91.50
2018-08-17T21:35:29.623Z,91.10
2018-08-17T21:37:58.083Z,91.40
2018-08-17T21:40:30.621Z,91.90
2018-08-17T21:43:00.579Z,91.90
2018-08-17T21:45:29.077Z,92.20
2018-08-17T21:47:57.639Z,92.20
2018-08-17T21:50:26.081Z,92.30
2018-08-17T21:52:54.577Z,92.30
2018-08-17T21:55:23.043Z,91.90
2018-08-17T21:57:51.609Z,92.10
2018-08-17T22:00:25.915Z,92.10
2018-08-17T22:02:54.386Z,92.10
2018-08-17T22:05:28.390Z,92.30
2018-08-17T22:07:56.880Z,92.10
2018-08-17T22:10:25.354Z,92.10
2018-08-17T22:12:53.830Z,92.20
2018-08-17T22:15:22.614Z,92.40
2018-08-17T22:17:51.066Z,92.40
2018-08-17T22:20:19.594Z,92.40
2018-08-17T22:22:48.670Z,92.70
2018-08-17T22:25:18.212Z,92.90
2018-08-17T22:27:48.663Z,92.50
2018-08-17T22:30:20.042Z,93.00
2018-08-17T22:32:48.526Z,92.80
2018-08-17T22:35:17.266Z,92.90
2018-08-17T22:37:45.715Z,92.90
2018-08-17T22:40:14.277Z,93.10
2018-08-17T22:42:42.907Z,93.10
2018-08-17T22:45:11.402Z,93.10
2018-08-17T22:47:39.820Z,93.00
2018-08-17T22:50:08.283Z,93.00
2018-08-17T22:52:36.714Z,93.00
2018-08-17T22:55:08.261Z,93.20
2018-08-17T22:57:36.720Z,93.40
2018-08-17T23:00:20.363Z,93.70
2018-08-17T23:02:49.932Z,94.20
2018-08-17T23:05:19.771Z,94.40
2018-08-17T23:07:48.197Z,94.20
2018-08-17T23:10:18.411Z,94.70
2018-08-17T23:12:47.882Z,95.10
2018-08-17T23:15:16.427Z,95.20
2018-08-17T23:17:50.755Z,95.30
2018-08-17T23:20:24.619Z,95.20
2018-08-17T23:22:56.272Z,95.00
2018-08-17T23:25:24.800Z,94.80
2018-08-17T23:27:53.438Z,94.60
2018-08-17T23:30:21.894Z,94.60
2018-08-17T23:32:50.632Z,94.60
2018-08-17T23:35:19.141Z,94.50
2018-08-17T23:37:47.706Z,94.50
2018-08-17T23:40:16.196Z,94.60
2018-08-17T23:42:44.696Z,94.50
2018-08-17T23:45:15.803Z,94.60
2018-08-17T23:47:44.318Z,94.60
2018-08-17T23:50:14.138Z,94.60
2018-08-17T23:52:42.909Z,94.60
2018-08-17T23:55:13.282Z,94.70
2018-08-17T23:57:41.773Z,94.80
